Time;durP1;ratioP1;P1;durP2;ratioP2;P2;SDS_P1;SDS_P2;PMS_P1;PMS_P2;Temp;Humidity;BMP_temperature;BMP_pressure;BME280_temperature;BME280_humidity;BME280_pressure;Samples;Min_cycle;Max_cycle;Signal;HPM_P1;HPM_P2
2022/03/31 00:00:29;;;;;;;26.20;10.18;;;;;;;;;;4991684;28;20168;-73
2022/03/31 00:02:57;;;;;;;27.05;9.30;;;;;;;;;;5019610;28;20085;-77
2022/03/31 00:05:23;;;;;;;24.50;9.57;;;;;;;;;;5015937;28;20456;-75
2022/03/31 00:07:48;;;;;;;17.63;9.35;;;;;;;;;;5013444;28;20020;-76
2022/03/31 00:10:14;;;;;;;26.98;11.52;;;;;;;;;;5014870;28;20030;-79
2022/03/31 00:12:39;;;;;;;21.73;10.15;;;;;;;;;;5011834;28;20360;-77
2022/03/31 00:15:05;;;;;;;22.92;10.77;;;;;;;;;;5011371;28;20196;-84
2022/03/31 00:17:30;;;;;;;19.17;10.32;;;;;;;;;;5011915;28;20034;-76
2022/03/31 00:19:55;;;;;;;26.00;11.07;;;;;;;;;;5012252;28;20077;-76
2022/03/31 00:22:20;;;;;;;23.20;11.13;;;;;;;;;;5011116;28;20026;-77
2022/03/31 00:24:46;;;;;;;32.40;11.73;;;;;;;;;;5011193;28;20080;-76
2022/03/31 00:27:11;;;;;;;20.83;11.85;;;;;;;;;;5012484;28;20271;-76
2022/03/31 00:29:37;;;;;;;22.23;13.10;;;;;;;;;;5012739;28;20475;-77
2022/03/31 00:32:04;;;;;;;33.35;13.93;;;;;;;;;;5011159;28;20120;-78
2022/03/31 00:34:30;;;;;;;24.50;12.43;;;;;;;;;;5012850;28;20492;-76
2022/03/31 00:36:56;;;;;;;24.50;12.52;;;;;;;;;;5011487;28;20137;-77
2022/03/31 00:39:32;;;;;;;26.67;13.07;;;;;;;;;;5011313;28;20531;-77
2022/03/31 00:41:58;;;;;;;27.40;12.65;;;;;;;;;;5011380;28;20133;-79
2022/03/31 00:44:24;;;;;;;25.38;13.13;;;;;;;;;;5012776;28;20386;-78
2022/03/31 00:46:50;;;;;;;28.00;15.52;;;;;;;;;;5012597;28;20112;-76
2022/03/31 00:49:16;;;;;;;27.00;13.13;;;;;;;;;;5012515;28;20045;-76
2022/03/31 00:51:42;;;;;;;29.73;15.27;;;;;;;;;;5012331;28;20061;-76
2022/03/31 00:54:07;;;;;;;33.55;15.30;;;;;;;;;;5012141;28;20104;-76
2022/03/31 00:56:33;;;;;;;27.58;14.02;;;;;;;;;;5012252;28;20435;-76
2022/03/31 00:58:58;;;;;;;29.35;14.68;;;;;;;;;;5012338;28;20064;-76
2022/03/31 01:01:23;;;;;;;29.92;15.60;;;;;;;;;;5012247;28;20042;-77
2022/03/31 01:03:49;;;;;;;28.73;16.45;;;;;;;;;;5013528;28;20474;-76
2022/03/31 01:06:14;;;;;;;28.65;16.17;;;;;;;;;;5015220;28;20463;-76
2022/03/31 01:08:40;;;;;;;24.02;15.00;;;;;;;;;;5011987;28;20108;-76
2022/03/31 01:11:05;;;;;;;24.33;15.18;;;;;;;;;;5012229;28;20390;-77
2022/03/31 01:13:30;;;;;;;27.30;15.85;;;;;;;;;;5010323;28;20895;-76
2022/03/31 01:15:56;;;;;;;26.33;15.20;;;;;;;;;;5010755;28;20018;-76
2022/03/31 01:18:21;;;;;;;25.17;15.25;;;;;;;;;;5012014;28;20017;-77
2022/03/31 01:20:46;;;;;;;25.10;15.23;;;;;;;;;;5011750;28;20029;-76
2022/03/31 01:23:15;;;;;;;30.83;16.20;;;;;;;;;;5011818;28;20025;-77
2022/03/31 01:25:40;;;;;;;32.75;16.77;;;;;;;;;;5010545;28;20046;-76
2022/03/31 01:28:06;;;;;;;25.50;14.45;;;;;;;;;;5010495;28;20470;-76
2022/03/31 01:30:31;;;;;;;31.00;15.75;;;;;;;;;;5011680;28;20009;-76
2022/03/31 01:32:56;;;;;;;28.20;16.15;;;;;;;;;;5009556;28;20132;-75
2022/03/31 01:35:23;;;;;;;30.27;16.13;;;;;;;;;;5012242;28;20541;-76
2022/03/31 01:37:49;;;;;;;25.90;16.45;;;;;;;;;;5011553;28;20087;-77
2022/03/31 01:40:14;;;;;;;31.40;16.85;;;;;;;;;;4997458;28;20022;-79
2022/03/31 01:42:40;;;;;;;33.70;15.63;;;;;;;;;;4990459;28;20026;-77
2022/03/31 01:45:07;;;;;;;25.10;15.43;;;;;;;;;;4998224;28;20097;-76
2022/03/31 01:47:32;;;;;;;31.23;16.52;;;;;;;;;;5011329;28;20025;-76
2022/03/31 01:49:57;;;;;;;25.60;15.90;;;;;;;;;;5011570;28;20497;-76
2022/03/31 01:52:23;;;;;;;28.58;15.27;;;;;;;;;;5009717;28;20026;-78
2022/03/31 01:54:49;;;;;;;27.55;16.70;;;;;;;;;;5011025;28;20071;-77
2022/03/31 01:57:14;;;;;;;30.98;16.98;;;;;;;;;;5002982;28;20053;-77
2022/03/31 01:59:43;;;;;;;29.27;16.02;;;;;;;;;;5018091;28;20022;-78
2022/03/31 02:02:10;;;;;;;32.17;17.05;;;;;;;;;;5020138;28;20028;-77
2022/03/31 02:04:36;;;;;;;33.90;17.17;;;;;;;;;;5018305;28;20014;-78
2022/03/31 02:07:01;;;;;;;29.88;16.67;;;;;;;;;;5013236;28;20028;-76
2022/03/31 02:09:27;;;;;;;26.05;16.75;;;;;;;;;;5011960;28;20109;-76
2022/03/31 02:11:52;;;;;;;29.70;17.67;;;;;;;;;;5011779;28;20471;-74
2022/03/31 02:14:19;;;;;;;30.33;16.95;;;;;;;;;;5013742;28;20479;-76
2022/03/31 02:16:45;;;;;;;39.30;18.65;;;;;;;;;;5014884;28;20049;-79
2022/03/31 02:19:11;;;;;;;29.52;17.08;;;;;;;;;;5011015;28;20069;-76
2022/03/31 02:21:37;;;;;;;36.13;19.17;;;;;;;;;;5010937;28;20029;-76
2022/03/31 02:24:02;;;;;;;35.47;18.27;;;;;;;;;;5011119;28;20452;-76
2022/03/31 02:26:28;;;;;;;34.25;18.70;;;;;;;;;;5009773;28;20022;-75
2022/03/31 02:28:53;;;;;;;33.13;18.40;;;;;;;;;;5010513;28;20417;-76
2022/03/31 02:31:18;;;;;;;28.85;17.67;;;;;;;;;;5010691;28;20030;-76
2022/03/31 02:33:43;;;;;;;30.23;16.30;;;;;;;;;;5010350;28;20504;-76
2022/03/31 02:36:09;;;;;;;28.85;16.88;;;;;;;;;;5010511;28;20026;-77
2022/03/31 02:38:34;;;;;;;32.55;18.02;;;;;;;;;;5010615;28;20033;-77
2022/03/31 02:41:00;;;;;;;31.73;17.67;;;;;;;;;;5010714;28;20089;-77
2022/03/31 02:43:25;;;;;;;33.47;16.55;;;;;;;;;;5005053;28;20018;-76
2022/03/31 02:45:51;;;;;;;28.83;16.30;;;;;;;;;;4993679;28;20018;-77
2022/03/31 02:48:16;;;;;;;26.13;15.93;;;;;;;;;;4994077;28;20025;-77
2022/03/31 02:50:41;;;;;;;25.70;14.15;;;;;;;;;;4994209;28;20022;-78
2022/03/31 02:55:50;;;;;;;23.38;14.27;;;;;;;;;;4997438;28;20081;-76
2022/03/31 02:58:15;;;;;;;29.50;14.15;;;;;;;;;;4995134;28;20058;-76
2022/03/31 03:00:40;;;;;;;26.50;15.27;;;;;;;;;;4994985;28;20061;-77
2022/03/31 03:03:06;;;;;;;29.27;14.48;;;;;;;;;;4994920;28;20272;-77
2022/03/31 03:05:32;;;;;;;31.75;14.43;;;;;;;;;;4995352;28;20029;-75
2022/03/31 03:07:57;;;;;;;31.95;14.80;;;;;;;;;;4994722;28;20025;-76
2022/03/31 03:10:22;;;;;;;25.77;15.23;;;;;;;;;;4994491;28;20061;-76
2022/03/31 03:12:49;;;;;;;31.45;15.35;;;;;;;;;;4994449;28;20106;-75
2022/03/31 03:15:15;;;;;;;28.48;16.67;;;;;;;;;;4993124;28;20415;-76
2022/03/31 03:17:44;;;;;;;32.00;16.00;;;;;;;;;;4994348;28;20037;-76
2022/03/31 03:20:13;;;;;;;27.48;15.85;;;;;;;;;;4993329;28;20022;-77
2022/03/31 03:22:48;;;;;;;29.08;17.30;;;;;;;;;;5009217;28;20019;-76
2022/03/31 03:25:15;;;;;;;33.85;17.88;;;;;;;;;;4994286;28;20026;-76
2022/03/31 03:27:41;;;;;;;35.00;18.08;;;;;;;;;;4993883;28;20018;-76
2022/03/31 03:30:07;;;;;;;28.55;16.67;;;;;;;;;;4994359;28;20022;-75
2022/03/31 03:32:33;;;;;;;29.13;17.00;;;;;;;;;;4994331;28;20499;-76
2022/03/31 03:34:58;;;;;;;35.03;20.88;;;;;;;;;;4994552;28;20022;-76
2022/03/31 03:37:23;;;;;;;34.60;21.40;;;;;;;;;;4994202;28;20483;-77
2022/03/31 03:39:49;;;;;;;38.35;21.10;;;;;;;;;;4994203;28;20018;-77
2022/03/31 03:42:15;;;;;;;37.67;21.65;;;;;;;;;;4994222;28;20030;-76
2022/03/31 03:44:43;;;;;;;32.67;22.30;;;;;;;;;;4994124;28;20041;-76
2022/03/31 03:47:08;;;;;;;35.00;21.35;;;;;;;;;;4994062;28;20026;-76
2022/03/31 03:49:33;;;;;;;30.42;21.05;;;;;;;;;;4994269;28;20069;-76
2022/03/31 03:51:59;;;;;;;38.40;23.15;;;;;;;;;;4996470;28;20031;-76
2022/03/31 03:54:25;;;;;;;44.13;24.80;;;;;;;;;;4993834;28;20106;-76
2022/03/31 03:56:50;;;;;;;46.88;25.25;;;;;;;;;;4992887;28;20050;-77
2022/03/31 03:59:15;;;;;;;40.90;24.88;;;;;;;;;;5002299;28;20379;-75
2022/03/31 04:01:44;;;;;;;36.28;23.50;;;;;;;;;;5013457;28;20022;-76
2022/03/31 04:04:10;;;;;;;40.83;25.67;;;;;;;;;;5013313;28;20478;-77
2022/03/31 04:06:35;;;;;;;34.60;24.08;;;;;;;;;;5013513;28;20041;-76
2022/03/31 04:09:01;;;;;;;40.80;25.70;;;;;;;;;;5013404;28;20464;-77
2022/03/31 04:11:26;;;;;;;42.38;26.98;;;;;;;;;;5011761;28;20045;-75
2022/03/31 04:13:51;;;;;;;39.92;25.45;;;;;;;;;;5011723;28;20553;-77
2022/03/31 04:16:16;;;;;;;46.08;26.85;;;;;;;;;;5013244;28;20052;-76
2022/03/31 04:18:42;;;;;;;43.15;28.60;;;;;;;;;;5013285;28;20022;-77
2022/03/31 04:21:07;;;;;;;56.97;31.25;;;;;;;;;;5013490;28;20029;-76
2022/03/31 04:23:32;;;;;;;47.10;26.83;;;;;;;;;;5014350;28;20025;-76
2022/03/31 04:25:58;;;;;;;42.78;27.52;;;;;;;;;;5017410;28;20028;-81
2022/03/31 04:28:23;;;;;;;41.17;26.15;;;;;;;;;;5013728;28;20463;-76
2022/03/31 04:30:48;;;;;;;47.17;27.95;;;;;;;;;;4993338;28;20471;-77
2022/03/31 04:33:13;;;;;;;43.88;27.38;;;;;;;;;;4992904;28;20050;-77
2022/03/31 04:35:39;;;;;;;43.53;25.00;;;;;;;;;;5010141;28;20030;-75
2022/03/31 04:38:04;;;;;;;42.88;26.52;;;;;;;;;;5012355;28;20034;-77
2022/03/31 04:40:30;;;;;;;36.92;26.27;;;;;;;;;;5012448;28;20022;-77
2022/03/31 04:42:55;;;;;;;42.63;26.70;;;;;;;;;;5012811;28;20050;-78
2022/03/31 04:45:20;;;;;;;37.92;24.77;;;;;;;;;;5015043;28;20022;-78
2022/03/31 04:47:46;;;;;;;36.65;25.02;;;;;;;;;;4998403;28;20023;-77
2022/03/31 04:50:12;;;;;;;35.83;23.98;;;;;;;;;;4995229;28;20014;-83
2022/03/31 04:52:38;;;;;;;37.63;26.00;;;;;;;;;;4992765;28;20022;-75
2022/03/31 04:55:03;;;;;;;38.50;25.40;;;;;;;;;;4992622;28;20014;-77
2022/03/31 04:57:28;;;;;;;43.13;26.73;;;;;;;;;;4992437;28;20038;-76
2022/03/31 04:59:54;;;;;;;45.40;27.00;;;;;;;;;;4991037;28;20467;-76
2022/03/31 05:02:19;;;;;;;43.30;23.65;;;;;;;;;;4992575;28;20041;-77
2022/03/31 05:04:44;;;;;;;39.38;22.05;;;;;;;;;;4992405;28;20105;-76
2022/03/31 05:07:09;;;;;;;35.80;21.92;;;;;;;;;;5002535;28;20032;-74
2022/03/31 05:09:35;;;;;;;43.53;22.50;;;;;;;;;;5010505;28;20021;-69
2022/03/31 05:12:00;;;;;;;43.10;22.45;;;;;;;;;;5011567;28;20030;-76
2022/03/31 05:14:25;;;;;;;38.92;24.40;;;;;;;;;;5010434;28;20057;-77
2022/03/31 05:16:52;;;;;;;42.25;25.13;;;;;;;;;;5011661;28;20044;-75
2022/03/31 05:19:17;;;;;;;40.75;24.38;;;;;;;;;;5011799;28;20022;-75
2022/03/31 05:21:43;;;;;;;37.03;24.50;;;;;;;;;;5018499;28;20037;-77
2022/03/31 05:24:08;;;;;;;45.30;25.63;;;;;;;;;;4996438;28;20022;-78
2022/03/31 05:26:33;;;;;;;42.60;25.38;;;;;;;;;;4992971;28;20018;-77
2022/03/31 05:29:00;;;;;;;43.65;27.13;;;;;;;;;;4992167;28;20034;-78
2022/03/31 05:31:25;;;;;;;40.10;26.98;;;;;;;;;;4998711;28;20049;-89
2022/03/31 05:33:50;;;;;;;38.22;25.05;;;;;;;;;;4999523;28;20022;-78
2022/03/31 05:36:16;;;;;;;32.22;23.17;;;;;;;;;;4991023;28;20026;-76
2022/03/31 05:38:41;;;;;;;37.30;24.67;;;;;;;;;;4993571;28;20041;-76
2022/03/31 05:41:06;;;;;;;41.38;24.98;;;;;;;;;;4992842;28;20018;-77
2022/03/31 05:43:32;;;;;;;38.13;25.27;;;;;;;;;;4991879;28;20033;-76
2022/03/31 05:45:57;;;;;;;38.65;25.27;;;;;;;;;;4991799;28;20037;-75
2022/03/31 05:48:22;;;;;;;33.40;22.83;;;;;;;;;;5010159;28;20533;-75
2022/03/31 05:50:48;;;;;;;39.42;23.67;;;;;;;;;;5011351;28;20024;-77
2022/03/31 05:53:13;;;;;;;40.28;23.92;;;;;;;;;;5010308;28;20369;-78
2022/03/31 05:55:40;;;;;;;41.85;24.00;;;;;;;;;;5011231;28;20072;-77
2022/03/31 05:58:06;;;;;;;39.58;23.10;;;;;;;;;;5010928;28;20029;-78
2022/03/31 06:00:31;;;;;;;37.42;22.08;;;;;;;;;;5009107;28;20014;-76
2022/03/31 06:02:56;;;;;;;33.90;21.88;;;;;;;;;;5017488;28;20479;-77
2022/03/31 06:05:23;;;;;;;38.00;21.88;;;;;;;;;;5011880;28;20010;-77
2022/03/31 06:07:48;;;;;;;37.97;22.98;;;;;;;;;;5019757;28;20049;-75
2022/03/31 06:10:13;;;;;;;40.58;20.95;;;;;;;;;;5018477;28;20022;-77
2022/03/31 06:12:39;;;;;;;35.50;20.40;;;;;;;;;;5012378;28;20014;-75
2022/03/31 06:15:06;;;;;;;32.92;20.40;;;;;;;;;;5012406;28;20415;-76
2022/03/31 06:17:33;;;;;;;37.22;21.10;;;;;;;;;;5009759;28;20125;-75
2022/03/31 06:19:58;;;;;;;38.63;22.70;;;;;;;;;;5016943;28;20378;-76
2022/03/31 06:22:24;;;;;;;40.65;21.30;;;;;;;;;;5009214;28;20018;-76
2022/03/31 06:24:49;;;;;;;31.63;21.05;;;;;;;;;;5017744;28;20026;-77
2022/03/31 06:27:14;;;;;;;34.47;21.33;;;;;;;;;;5009988;28;20030;-77
2022/03/31 06:29:41;;;;;;;33.08;20.83;;;;;;;;;;5013951;28;20010;-78
2022/03/31 06:32:07;;;;;;;35.35;21.75;;;;;;;;;;5011739;28;20025;-76
2022/03/31 06:34:32;;;;;;;38.35;22.25;;;;;;;;;;5012812;28;20030;-78
2022/03/31 06:36:58;;;;;;;31.20;20.58;;;;;;;;;;5024563;28;20077;-87
2022/03/31 06:39:23;;;;;;;37.17;22.88;;;;;;;;;;5025388;28;20033;-85
2022/03/31 06:41:48;;;;;;;35.40;20.95;;;;;;;;;;5026465;28;20021;-83
2022/03/31 06:44:16;;;;;;;36.25;21.02;;;;;;;;;;5024117;28;20018;-86
2022/03/31 06:46:41;;;;;;;31.73;21.27;;;;;;;;;;5026130;28;20040;-87
2022/03/31 06:49:06;;;;;;;32.13;21.30;;;;;;;;;;5024657;28;20022;-85
2022/03/31 06:51:32;;;;;;;33.22;21.80;;;;;;;;;;5030965;28;20043;-82
2022/03/31 06:53:57;;;;;;;37.38;23.88;;;;;;;;;;5032027;28;20014;-86
2022/03/31 06:56:23;;;;;;;31.25;21.98;;;;;;;;;;5031973;28;20081;-84
2022/03/31 06:58:48;;;;;;;33.13;21.55;;;;;;;;;;5027495;28;20032;-84
2022/03/31 07:01:14;;;;;;;34.70;20.63;;;;;;;;;;5020753;28;20020;-75
2022/03/31 07:03:39;;;;;;;40.90;21.38;;;;;;;;;;5018005;28;20390;-77
2022/03/31 07:06:06;;;;;;;37.33;21.75;;;;;;;;;;5018864;28;20112;-75
2022/03/31 07:08:33;;;;;;;33.72;19.77;;;;;;;;;;5016960;28;20022;-76
2022/03/31 07:10:59;;;;;;;33.40;18.92;;;;;;;;;;5009940;28;20030;-75
2022/03/31 07:13:24;;;;;;;39.72;21.58;;;;;;;;;;5009293;28;20072;-75
2022/03/31 07:15:50;;;;;;;34.67;18.83;;;;;;;;;;5019004;28;20713;-76
2022/03/31 07:18:15;;;;;;;34.22;20.00;;;;;;;;;;5019452;28;20037;-76
2022/03/31 07:20:40;;;;;;;28.80;16.63;;;;;;;;;;5020156;28;20067;-78
2022/03/31 07:23:06;;;;;;;45.00;16.63;;;;;;;;;;5015767;28;20026;-76
2022/03/31 07:25:31;;;;;;;27.48;15.77;;;;;;;;;;5008728;28;20479;-75
2022/03/31 07:27:57;;;;;;;30.75;15.85;;;;;;;;;;5011985;28;20033;-77
2022/03/31 07:30:23;;;;;;;28.10;16.13;;;;;;;;;;5013167;28;20064;-74
2022/03/31 07:32:58;;;;;;;27.63;15.50;;;;;;;;;;5024322;28;20029;-76
2022/03/31 07:35:25;;;;;;;24.85;14.25;;;;;;;;;;5022801;28;20417;-76
2022/03/31 07:37:51;;;;;;;22.75;15.73;;;;;;;;;;5023024;28;20068;-78
2022/03/31 07:40:17;;;;;;;22.08;15.57;;;;;;;;;;5020110;28;20029;-75
2022/03/31 07:42:42;;;;;;;23.13;14.25;;;;;;;;;;5020715;28;20009;-75
2022/03/31 07:45:08;;;;;;;24.98;16.13;;;;;;;;;;5019620;28;20458;-77
2022/03/31 07:47:34;;;;;;;22.70;14.80;;;;;;;;;;5020898;28;20018;-74
2022/03/31 07:49:59;;;;;;;26.48;15.02;;;;;;;;;;5021035;28;20017;-76
2022/03/31 07:52:24;;;;;;;23.15;15.35;;;;;;;;;;5013839;28;20112;-76
2022/03/31 07:54:49;;;;;;;24.98;14.35;;;;;;;;;;5020103;28;20383;-75
2022/03/31 07:57:15;;;;;;;19.92;12.85;;;;;;;;;;5021503;28;20030;-76
2022/03/31 07:59:40;;;;;;;18.35;12.98;;;;;;;;;;5011401;28;20042;-75
2022/03/31 08:02:06;;;;;;;20.13;13.52;;;;;;;;;;5021245;28;20570;-75
2022/03/31 08:04:32;;;;;;;20.23;12.57;;;;;;;;;;5021986;28;20115;-75
2022/03/31 08:06:57;;;;;;;28.70;14.32;;;;;;;;;;5021679;28;20124;-76
2022/03/31 08:09:22;;;;;;;20.85;13.30;;;;;;;;;;5017923;28;20034;-75
2022/03/31 08:11:49;;;;;;;21.83;11.10;;;;;;;;;;5008361;28;20439;-76
2022/03/31 08:14:16;;;;;;;27.75;12.82;;;;;;;;;;5000576;28;20034;-76
2022/03/31 08:16:45;;;;;;;23.95;11.52;;;;;;;;;;5015070;28;20036;-78
2022/03/31 08:19:10;;;;;;;21.88;9.35;;;;;;;;;;5013072;28;20076;-76
2022/03/31 08:21:36;;;;;;;21.67;9.65;;;;;;;;;;5012171;28;20013;-75
2022/03/31 08:24:01;;;;;;;19.92;8.02;;;;;;;;;;5012407;28;20014;-75
2022/03/31 08:26:26;;;;;;;22.83;9.32;;;;;;;;;;5008318;28;20116;-76
2022/03/31 08:28:51;;;;;;;18.58;8.38;;;;;;;;;;5009669;28;20100;-76
2022/03/31 08:31:16;;;;;;;17.73;7.93;;;;;;;;;;5023677;28;20026;-78
2022/03/31 08:33:42;;;;;;;17.30;7.45;;;;;;;;;;5009951;28;20270;-75
2022/03/31 08:36:08;;;;;;;18.83;7.93;;;;;;;;;;4994816;28;20037;-76
2022/03/31 08:38:33;;;;;;;20.33;7.63;;;;;;;;;;5011681;28;20025;-75
2022/03/31 08:40:59;;;;;;;18.33;7.97;;;;;;;;;;5011437;28;20117;-74
2022/03/31 08:43:26;;;;;;;20.60;8.15;;;;;;;;;;5010266;28;20498;-79
2022/03/31 08:45:55;;;;;;;20.05;9.15;;;;;;;;;;5009656;28;20045;-76
2022/03/31 08:48:20;;;;;;;19.90;7.82;;;;;;;;;;5024534;28;20013;-75
2022/03/31 08:50:46;;;;;;;18.20;7.32;;;;;;;;;;5019679;28;20048;-81
2022/03/31 08:53:11;;;;;;;19.13;7.65;;;;;;;;;;5017706;28;20029;-75
2022/03/31 08:55:36;;;;;;;12.65;6.82;;;;;;;;;;5014935;28;20060;-77
2022/03/31 08:58:02;;;;;;;22.20;6.53;;;;;;;;;;5020430;28;20033;-76
2022/03/31 09:00:27;;;;;;;15.02;6.28;;;;;;;;;;5019420;28;20388;-76
2022/03/31 09:03:00;;;;;;;17.38;7.00;;;;;;;;;;5027473;28;20060;-76
2022/03/31 09:05:25;;;;;;;20.67;6.57;;;;;;;;;;5031935;28;20025;-75
2022/03/31 09:08:10;;;;;;;12.38;5.45;;;;;;;;;;5022603;28;20029;-74
2022/03/31 09:10:36;;;;;;;14.35;6.72;;;;;;;;;;5020355;28;20025;-75
2022/03/31 09:13:03;;;;;;;15.48;5.43;;;;;;;;;;5012420;28;20026;-78
2022/03/31 09:15:28;;;;;;;11.68;5.28;;;;;;;;;;5021474;28;20112;-77
2022/03/31 09:17:55;;;;;;;15.70;5.35;;;;;;;;;;5010510;28;20108;-76
2022/03/31 09:20:21;;;;;;;17.08;6.10;;;;;;;;;;5021227;28;20049;-76
2022/03/31 09:22:48;;;;;;;14.40;5.82;;;;;;;;;;5019607;28;20048;-76
2022/03/31 09:25:22;;;;;;;16.05;7.25;;;;;;;;;;5019494;28;20013;-75
2022/03/31 09:27:47;;;;;;;12.13;5.65;;;;;;;;;;5013993;28;20026;-74
2022/03/31 09:30:12;;;;;;;13.15;5.28;;;;;;;;;;5018461;28;20446;-76
2022/03/31 09:32:48;;;;;;;15.02;5.68;;;;;;;;;;5033809;28;20038;-75
2022/03/31 09:35:17;;;;;;;11.95;4.40;;;;;;;;;;5011444;28;20026;-73
2022/03/31 09:37:43;;;;;;;12.52;5.55;;;;;;;;;;5011965;28;20079;-75
2022/03/31 09:40:09;;;;;;;11.48;5.10;;;;;;;;;;5011606;28;20022;-76
2022/03/31 09:42:34;;;;;;;10.43;4.80;;;;;;;;;;5011100;28;20022;-76
2022/03/31 09:44:59;;;;;;;11.15;5.10;;;;;;;;;;5012576;28;20002;-78
2022/03/31 09:47:26;;;;;;;10.35;4.55;;;;;;;;;;5012375;28;20495;-75
2022/03/31 09:49:55;;;;;;;9.13;4.07;;;;;;;;;;5010838;28;20017;-76
2022/03/31 09:52:20;;;;;;;10.00;4.93;;;;;;;;;;5009873;28;20112;-76
2022/03/31 09:54:47;;;;;;;10.98;4.32;;;;;;;;;;5009936;28;20526;-75
2022/03/31 09:57:13;;;;;;;6.53;3.50;;;;;;;;;;5010645;28;20022;-75
2022/03/31 09:59:39;;;;;;;10.85;4.40;;;;;;;;;;5010496;28;20479;-76
2022/03/31 10:02:05;;;;;;;9.80;4.60;;;;;;;;;;5009285;28;20018;-75
2022/03/31 10:04:31;;;;;;;11.20;4.22;;;;;;;;;;5010262;28;20036;-75
2022/03/31 10:06:57;;;;;;;15.18;5.82;;;;;;;;;;5010971;28;20026;-75
2022/03/31 10:09:23;;;;;;;18.17;5.80;;;;;;;;;;5004818;28;20059;-74
2022/03/31 10:12:00;;;;;;;19.95;5.47;;;;;;;;;;5010565;28;20385;-75
2022/03/31 10:14:32;;;;;;;16.67;5.57;;;;;;;;;;5010078;28;20080;-75
2022/03/31 10:16:58;;;;;;;14.18;6.30;;;;;;;;;;5011122;28;20034;-75
2022/03/31 10:19:28;;;;;;;13.73;5.50;;;;;;;;;;5010340;28;20020;-76
2022/03/31 10:22:04;;;;;;;15.38;5.28;;;;;;;;;;5009101;28;20021;-75
2022/03/31 10:24:42;;;;;;;9.55;4.32;;;;;;;;;;5010123;28;20105;-74
2022/03/31 10:27:08;;;;;;;13.98;5.00;;;;;;;;;;5008914;28;20028;-76
2022/03/31 10:29:43;;;;;;;11.95;3.90;;;;;;;;;;5010225;28;20112;-77
2022/03/31 10:32:34;;;;;;;6.05;3.78;;;;;;;;;;5010565;28;20014;-80
2022/03/31 10:35:00;;;;;;;9.45;3.50;;;;;;;;;;5006086;28;20022;-76
2022/03/31 10:37:38;;;;;;;14.93;5.63;;;;;;;;;;5009332;28;20041;-75
2022/03/31 10:40:05;;;;;;;10.32;5.32;;;;;;;;;;5010278;28;20032;-76
2022/03/31 10:42:30;;;;;;;7.22;3.00;;;;;;;;;;4992316;28;20022;-76
2022/03/31 10:45:06;;;;;;;8.05;3.20;;;;;;;;;;5010082;28;20147;-77
2022/03/31 10:47:32;;;;;;;8.65;3.58;;;;;;;;;;5008910;28;20497;-76
2022/03/31 10:49:57;;;;;;;10.38;3.92;;;;;;;;;;5010086;28;20783;-75
2022/03/31 10:52:23;;;;;;;8.70;3.35;;;;;;;;;;5009348;28;20140;-76
2022/03/31 10:54:49;;;;;;;6.80;3.30;;;;;;;;;;5010749;28;20464;-78
2022/03/31 10:57:17;;;;;;;5.35;3.20;;;;;;;;;;5010868;28;20041;-76
2022/03/31 10:59:43;;;;;;;5.55;2.45;;;;;;;;;;5010886;28;20026;-80
2022/03/31 11:02:12;;;;;;;5.38;3.00;;;;;;;;;;5016764;28;20498;-78
2022/03/31 11:04:44;;;;;;;5.35;2.80;;;;;;;;;;5015612;28;20054;-76
2022/03/31 11:07:13;;;;;;;10.30;3.85;;;;;;;;;;5015201;28;20021;-75
2022/03/31 11:09:38;;;;;;;7.82;3.45;;;;;;;;;;5014135;28;20026;-76
2022/03/31 11:12:04;;;;;;;7.85;3.00;;;;;;;;;;5013919;28;20201;-76
2022/03/31 11:14:29;;;;;;;5.72;2.45;;;;;;;;;;5014158;28;20038;-74
2022/03/31 11:16:55;;;;;;;5.85;3.00;;;;;;;;;;5014179;28;20395;-76
2022/03/31 11:19:20;;;;;;;7.80;2.85;;;;;;;;;;5014345;28;20375;-76
2022/03/31 11:21:46;;;;;;;4.60;2.67;;;;;;;;;;5014191;28;20022;-76
2022/03/31 11:24:11;;;;;;;8.20;3.47;;;;;;;;;;4997779;28;20033;-78
2022/03/31 11:26:44;;;;;;;8.35;3.08;;;;;;;;;;4994238;28;20030;-76
2022/03/31 11:29:10;;;;;;;7.80;3.33;;;;;;;;;;4994449;28;20078;-76
2022/03/31 11:31:35;;;;;;;7.30;2.97;;;;;;;;;;4994360;28;20018;-75
2022/03/31 11:34:00;;;;;;;4.55;2.55;;;;;;;;;;5009385;28;20096;-77
2022/03/31 11:36:35;;;;;;;6.85;2.47;;;;;;;;;;4993438;28;20021;-76
2022/03/31 11:39:00;;;;;;;5.63;3.37;;;;;;;;;;4997990;28;20034;-76
2022/03/31 11:41:35;;;;;;;4.77;2.53;;;;;;;;;;5014301;28;20034;-75
2022/03/31 11:44:01;;;;;;;;;;;;;;;;;;5005484;28;20298;-76
2022/03/31 11:46:26;;;;;;;5.55;2.72;;;;;;;;;;5000344;28;19913;-78
2022/03/31 11:48:52;;;;;;;7.53;4.80;;;;;;;;;;5015071;28;20057;-78
2022/03/31 11:51:17;;;;;;;7.53;4.72;;;;;;;;;;4999621;28;20033;-78
2022/03/31 11:53:44;;;;;;;7.30;4.15;;;;;;;;;;4994723;28;20026;-75
2022/03/31 11:56:12;;;;;;;6.28;3.28;;;;;;;;;;5002567;28;20037;-77
2022/03/31 11:58:43;;;;;;;8.90;4.07;;;;;;;;;;5013089;28;20030;-77
2022/03/31 12:01:09;;;;;;;5.60;3.30;;;;;;;;;;5011778;28;20348;-77
2022/03/31 12:03:35;;;;;;;8.68;3.75;;;;;;;;;;5012645;28;20044;-77
2022/03/31 12:06:00;;;;;;;7.85;2.90;;;;;;;;;;5011323;28;20026;-80
2022/03/31 12:08:27;;;;;;;5.38;2.70;;;;;;;;;;5014026;28;20073;-76
2022/03/31 12:10:53;;;;;;;4.35;2.65;;;;;;;;;;5007578;28;20145;-77
2022/03/31 12:13:19;;;;;;;7.05;3.00;;;;;;;;;;5012817;28;20079;-77
2022/03/31 12:15:45;;;;;;;8.48;3.00;;;;;;;;;;5012337;28;20058;-78
2022/03/31 12:18:16;;;;;;;8.00;2.88;;;;;;;;;;5010917;28;20038;-77
2022/03/31 12:20:41;;;;;;;8.75;2.75;;;;;;;;;;5012697;28;20026;-77
2022/03/31 12:23:23;;;;;;;7.32;2.90;;;;;;;;;;5012577;28;20049;-76
2022/03/31 12:25:48;;;;;;;12.20;3.85;;;;;;;;;;5010637;28;20037;-77
2022/03/31 12:28:14;;;;;;;8.52;3.03;;;;;;;;;;5012194;28;20030;-77
2022/03/31 12:30:50;;;;;;;7.72;3.40;;;;;;;;;;5012321;28;20014;-75
2022/03/31 12:33:20;;;;;;;18.35;5.40;;;;;;;;;;5012282;28;20120;-77
2022/03/31 12:35:51;;;;;;;9.48;3.58;;;;;;;;;;5011877;28;20479;-76
2022/03/31 12:38:16;;;;;;;7.47;4.13;;;;;;;;;;5012553;28;20116;-76
2022/03/31 12:40:45;;;;;;;6.13;3.10;;;;;;;;;;5012018;28;20017;-78
2022/03/31 12:43:10;;;;;;;5.03;2.90;;;;;;;;;;5012203;28;20407;-77
2022/03/31 12:45:36;;;;;;;7.93;3.08;;;;;;;;;;5012067;28;20025;-77
2022/03/31 12:48:08;;;;;;;7.90;3.17;;;;;;;;;;5011977;28;20026;-73
2022/03/31 12:50:38;;;;;;;5.72;2.08;;;;;;;;;;5011772;28;20121;-75
2022/03/31 12:53:04;;;;;;;4.55;2.10;;;;;;;;;;5012115;28;20029;-75
2022/03/31 12:55:33;;;;;;;4.03;2.40;;;;;;;;;;5011950;28;20068;-75
2022/03/31 12:57:59;;;;;;;4.15;2.17;;;;;;;;;;5011329;28;20037;-75
2022/03/31 13:00:25;;;;;;;3.65;2.35;;;;;;;;;;5014113;28;20026;-80
2022/03/31 13:02:52;;;;;;;5.70;2.40;;;;;;;;;;5017252;28;20018;-80
2022/03/31 13:05:19;;;;;;;5.07;2.78;;;;;;;;;;5015482;28;20006;-81
2022/03/31 13:07:44;;;;;;;5.40;2.30;;;;;;;;;;5017523;28;20029;-84
2022/03/31 13:10:09;;;;;;;4.95;2.72;;;;;;;;;;5017198;28;20030;-86
2022/03/31 13:12:35;;;;;;;8.80;2.92;;;;;;;;;;5022440;28;20018;-80
2022/03/31 13:15:00;;;;;;;3.78;1.98;;;;;;;;;;5024384;28;20513;-84
2022/03/31 13:17:26;;;;;;;4.70;1.90;;;;;;;;;;5023092;28;20053;-83
2022/03/31 13:19:51;;;;;;;2.80;1.80;;;;;;;;;;5018739;28;20025;-80
2022/03/31 13:22:22;;;;;;;6.40;2.10;;;;;;;;;;5016698;28;20108;-81
2022/03/31 13:24:51;;;;;;;3.50;2.00;;;;;;;;;;5002305;28;20030;-80
2022/03/31 13:27:17;;;;;;;3.97;2.20;;;;;;;;;;5013875;28;20045;-82
2022/03/31 13:29:42;;;;;;;6.40;2.80;;;;;;;;;;5019430;28;20063;-82
2022/03/31 13:32:08;;;;;;;6.90;3.00;;;;;;;;;;5023020;28;20030;-85
2022/03/31 13:34:34;;;;;;;4.75;2.88;;;;;;;;;;5019675;28;20021;-75
2022/03/31 13:37:02;;;;;;;5.88;3.08;;;;;;;;;;5014643;28;20711;-76
2022/03/31 13:39:28;;;;;;;29.48;19.92;;;;;;;;;;5016518;28;20022;-79
2022/03/31 13:41:54;;;;;;;23.77;14.85;;;;;;;;;;5014949;28;20048;-82
2022/03/31 13:44:19;;;;;;;25.00;13.20;;;;;;;;;;5018604;28;20017;-83
2022/03/31 13:46:48;;;;;;;31.58;14.02;;;;;;;;;;5011920;28;21145;-83
2022/03/31 13:49:14;;;;;;;34.20;15.40;;;;;;;;;;5005408;28;20506;-79
2022/03/31 13:51:40;;;;;;;35.13;28.40;;;;;;;;;;5010508;28;20065;-79
2022/03/31 13:54:06;;;;;;;14.15;10.88;;;;;;;;;;5012114;28;20041;-81
2022/03/31 13:56:34;;;;;;;8.20;5.88;;;;;;;;;;5011039;28;20034;-82
2022/03/31 14:01:44;;;;;;;9.50;3.20;;;;;;;;;;5008466;28;20080;-75
2022/03/31 14:04:09;;;;;;;11.07;2.55;;;;;;;;;;5007795;28;20799;-76
2022/03/31 14:06:34;;;;;;;6.10;2.67;;;;;;;;;;5008107;28;20132;-75
2022/03/31 14:09:01;;;;;;;6.00;2.90;;;;;;;;;;5007828;28;20105;-76
2022/03/31 14:11:30;;;;;;;5.88;3.13;;;;;;;;;;5005687;28;20018;-76
2022/03/31 14:13:55;;;;;;;6.95;3.05;;;;;;;;;;5007792;28;20042;-75
2022/03/31 14:16:22;;;;;;;6.13;3.10;;;;;;;;;;5007456;28;20690;-75
2022/03/31 14:18:47;;;;;;;5.97;2.90;;;;;;;;;;5007850;28;20522;-75
2022/03/31 14:21:13;;;;;;;8.77;3.05;;;;;;;;;;5008942;28;20097;-75
2022/03/31 14:23:39;;;;;;;6.15;2.50;;;;;;;;;;5008028;28;20095;-76
2022/03/31 14:26:07;;;;;;;5.38;2.63;;;;;;;;;;5000489;28;20021;-75